Latest Weather Observations for Inner Beacon

IDQ60801

Issued at 7:02 am EST Tuesday 3 May 2016 (issued every 30 minutes, with the page automatically refreshed every 10 minutes)

About weather observations | Map of weather stations | Latest weather observations for QLD | Other Formats
Station Details ID: 040926 Name: INNER RECIPROCAL MARKER Lat: -27.26 Lon: 153.24 Height: 20.0 m
Data from the previous 72 hours. | See also: Recent months for locations in Queensland
Date/Time
EST
Temp
°C
App
Temp
°C
Dew
Point
Rel
Hum
%
Delta-T
°C
Wind Press
QNH
hPa
Press
MSL
hPa
Rain
since 9 am
mm
Dir
 
Spd
km/h
Gust
km/h
Spd
kts
Gust
kts
03/07:00am - - - - - SSW 9 11 5 6 - - -
03/06:30am - - - - - SW 9 11 5 6 - - -
03/06:00am - - - - - W 9 11 5 6 - - -
03/05:30am - - - - - WNW 13 15 7 8 - - -
03/05:00am - - - - - NW 13 15 7 8 - - -
03/04:30am - - - - - NNW 13 17 7 9 - - -
03/04:00am - - - - - NW 9 13 5 7 - - -
03/03:30am - - - - - NNW 11 13 6 7 - - -
03/03:00am - - - - - NNE 6 6 3 3 - - -
03/02:30am - - - - - NNW 9 13 5 7 - - -
03/02:00am - - - - - N 6 7 3 4 - - -
03/01:30am - - - - - N 7 11 4 6 - - -
03/01:00am - - - - - NW 6 9 3 5 - - -
03/12:30am - - - - - NNW 11 15 6 8 - - -
03/12:00am - - - - - SE 2 6 1 3 - - -
 
Date/Time
EST
Temp
°C
App
Temp
°C
Dew
Point
Rel
Hum
%
Delta-T
°C
Wind Press
QNH
hPa
Press
MSL
hPa
Rain
since 9 am
mm
Dir
 
Spd
km/h
Gust
km/h
Spd
kts
Gust
kts
02/11:30pm - - - - - ESE 7 9 4 5 - - -
02/11:00pm - - - - - SE 9 11 5 6 - - -
02/10:30pm - - - - - SSE 11 13 6 7 - - -
02/10:00pm - - - - - SSE 9 11 5 6 - - -
02/09:30pm - - - - - SSE 13 15 7 8 - - -
02/09:00pm - - - - - SSE 15 19 8 10 - - -
02/08:30pm - - - - - SE 11 13 6 7 - - -
02/08:00pm - - - - - E 9 11 5 6 - - -
02/07:30pm - - - - - E 9 13 5 7 - - -
02/07:00pm - - - - - ESE 9 9 5 5 - - -
02/06:30pm - - - - - ESE 6 7 3 4 - - -
02/06:00pm - - - - - ESE 7 9 4 5 - - -
02/05:30pm - - - - - E 7 11 4 6 - - -
02/05:00pm - - - - - E 13 15 7 8 - - -
02/04:30pm - - - - - E 13 17 7 9 - - -
02/04:00pm - - - - - E 11 15 6 8 - - -
02/03:30pm - - - - - E 11 13 6 7 - - -
02/03:00pm - - - - - E 6 7 3 4 - - -
02/02:30pm - - - - - E 9 11 5 6 - - -
02/02:00pm - - - - - SSE 13 17 7 9 - - -
02/01:30pm - - - - - SE 9 11 5 6 - - -
02/01:00pm - - - - - SSE 11 15 6 8 - - -
02/12:30pm - - - - - SSE 11 13 6 7 - - -
02/12:00pm - - - - - SSE 7 9 4 5 - - -
02/11:30am - - - - - SSW 7 7 4 4 - - -
02/11:00am - - - - - S 9 11 5 6 - - -
02/10:30am - - - - - SSW 11 13 6 7 - - -
02/10:00am - - - - - SSW 11 13 6 7 - - -
02/09:30am - - - - - S 11 13 6 7 - - -
02/09:00am - - - - - SSE 9 9 5 5 - - -
02/08:30am - - - - - SSW 9 11 5 6 - - -
02/08:00am - - - - - SSW 11 13 6 7 - - -
02/07:30am - - - - - SSW 13 15 7 8 - - -
02/07:00am - - - - - S 11 13 6 7 - - -
02/06:30am - - - - - SSE 4 6 2 3 - - -
02/06:00am - - - - - S 7 9 4 5 - - -
02/05:30am - - - - - S 13 15 7 8 - - -
02/05:00am - - - - - S 13 15 7 8 - - -
02/04:30am - - - - - S 11 13 6 7 - - -
02/04:00am - - - - - S 13 17 7 9 - - -
02/03:30am - - - - - SSW 15 17 8 9 - - -
02/03:00am - - - - - WSW 13 13 7 7 - - -
02/02:30am - - - - - NW 7 7 4 4 - - -
02/02:00am - - - - - NW 9 9 5 5 - - -
02/01:30am - - - - - NW 7 9 4 5 - - -
02/01:00am - - - - - WNW 9 13 5 7 - - -
02/12:30am - - - - - CALM 0 6 0 3 - - -
02/12:00am - - - - - ENE 7 9 4 5 - - -
 
Date/Time
EST
Temp
°C
App
Temp
°C
Dew
Point
Rel
Hum
%
Delta-T
°C
Wind Press
QNH
hPa
Press
MSL
hPa
Rain
since 9 am
mm
Dir
 
Spd
km/h
Gust
km/h
Spd
kts
Gust
kts
01/11:30pm - - - - - E 7 9 4 5 - - -
01/11:00pm - - - - - SSE 9 13 5 7 - - -
01/10:30pm - - - - - SSE 9 11 5 6 - - -
01/10:00pm - - - - - S 9 11 5 6 - - -
01/09:30pm - - - - - SW 11 15 6 8 - - -
01/09:00pm - - - - - SW 11 13 6 7 - - -
01/08:30pm - - - - - SW 17 19 9 10 - - -
01/08:00pm - - - - - SSW 9 9 5 5 - - -
01/07:30pm - - - - - S 7 9 4 5 - - -
01/07:00pm - - - - - SSE 7 9 4 5 - - -
01/06:30pm - - - - - SSE 15 19 8 10 - - -
01/06:00pm - - - - - S 11 13 6 7 - - -
01/05:30pm - - - - - SE 7 9 4 5 - - -
01/05:00pm - - - - - ESE 11 13 6 7 - - -
01/04:30pm - - - - - SE 17 19 9 10 - - -
01/04:00pm - - - - - SE 17 19 9 10 - - -
01/03:30pm - - - - - SSE 17 20 9 11 - - -
01/03:00pm - - - - - S 20 24 11 13 - - -
01/02:30pm - - - - - S 22 26 12 14 - - -
01/02:00pm - - - - - S 28 33 15 18 - - -
01/01:30pm - - - - - SSW 19 22 10 12 - - -
01/01:00pm - - - - - SSW 15 19 8 10 - - -
01/12:30pm - - - - - SSW 13 17 7 9 - - -
01/12:00pm - - - - - SE 11 15 6 8 - - -
01/11:30am - - - - - SSE 13 15 7 8 - - -
01/11:00am - - - - - SSE 13 15 7 8 - - -
01/10:30am - - - - - SE 15 17 8 9 - - -
01/10:00am - - - - - SE 13 15 7 8 - - -
01/09:30am - - - - - SE 11 13 6 7 - - -
01/09:00am - - - - - ESE 11 13 6 7 - - -
01/08:30am - - - - - SE 13 15 7 8 - - -
01/08:00am - - - - - ESE 15 19 8 10 - - -
01/07:30am - - - - - ESE 13 15 7 8 - - -
01/07:00am - - - - - E 13 22 7 12 - - -
01/06:30am - - - - - ESE 17 20 9 11 - - -
01/06:00am - - - - - E 20 26 11 14 - - -
01/05:30am - - - - - E 22 26 12 14 - - -
01/05:00am - - - - - E 24 30 13 16 - - -
01/04:30am - - - - - E 20 24 11 13 - - -
01/04:00am - - - - - NE 24 28 13 15 - - -
01/03:30am - - - - - NNE 32 35 17 19 - - -
01/03:00am - - - - - NNE 22 26 12 14 - - -
01/02:30am - - - - - NNE 19 22 10 12 - - -
01/02:00am - - - - - NNE 17 19 9 10 - - -
01/01:30am - - - - - N 20 28 11 15 - - -
01/01:00am - - - - - N 7 7 4 4 - - -
01/12:30am - - - - - NE 2 4 1 2 - - -
01/12:00am - - - - - ENE 6 6 3 3 - - -
 
Date/Time
EST
Temp
°C
App
Temp
°C
Dew
Point
Rel
Hum
%
Delta-T
°C
Wind Press
QNH
hPa
Press
MSL
hPa
Rain
since 9 am
mm
Dir
 
Spd
km/h
Gust
km/h
Spd
kts
Gust
kts
30/11:30pm - - - - - ENE 7 9 4 5 - - -
30/11:00pm - - - - - NNE 9 13 5 7 - - -
30/10:30pm - - - - - NE 15 15 8 8 - - -
30/10:00pm - - - - - NE 15 17 8 9 - - -
30/09:30pm - - - - - NE 15 19 8 10 - - -
30/09:00pm - - - - - NE 15 17 8 9 - - -
30/08:30pm - - - - - NE 17 20 9 11 - - -
30/08:00pm - - - - - NE 17 20 9 11 - - -
30/07:30pm - - - - - ENE 17 22 9 12 - - -
30/07:00pm - - - - - NE 11 13 6 7 - - -
30/06:30pm - - - - - ENE 9 11 5 6 - - -
30/06:00pm - - - - - ENE 11 15 6 8 - - -
30/05:30pm - - - - - NE 15 17 8 9 - - -
30/05:00pm - - - - - NE 17 19 9 10 - - -
30/04:30pm - - - - - NE 13 15 7 8 - - -
30/04:00pm - - - - - ENE 15 17 8 9 - - -
30/03:30pm - - - - - ENE 4 7 2 4 - - -
30/03:00pm - - - - - NE 4 6 2 3 - - -
30/02:30pm - - - - - NE 2 4 1 2 - - -
30/02:00pm - - - - - NNE 6 7 3 4 - - -
30/01:30pm - - - - - ENE 7 15 4 8 - - -
30/01:00pm - - - - - SE 6 7 3 4 - - -
30/12:30pm - - - - - SSE 7 9 4 5 - - -
30/12:00pm - - - - - S 7 7 4 4 - - -
30/11:30am - - - - - S 7 9 4 5 - - -
30/11:00am - - - - - SSW 9 9 5 5 - - -
30/10:30am - - - - - S 11 13 6 7 - - -
30/10:00am - - - - - SSW 13 15 7 8 - - -
30/09:30am - - - - - SSW 15 17 8 9 - - -
30/09:00am - - - - - SSW 13 15 7 8 - - -
30/08:30am - - - - - SSW 13 15 7 8 - - -
30/08:00am - - - - - SSW 11 13 6 7 - - -
30/07:30am - - - - - SSW 9 11 5 6 - - -

Other Formats:

Comma delimited format used in spreadsheet applications
http://www.bom.gov.au/fwo/IDQ60801/IDQ60801.94590.axf

JavaScript Object Notation format (JSON) in row-major order
http://www.bom.gov.au/fwo/IDQ60801/IDQ60801.94590.json